White Mountain Summit Weather observations

Data are for 10 minute period ending at time listed.
 Day   Time   Solar   Ave.   Ave.  Ave.  Vector    Max.    Baro.  
  of    of     Rad.   Air    Rel.  Wind   Wind     Wind   Press.  
Year   Day            Temp.  Hum.  Speed  Dir.     Gust           
2014   (PST)   W/m2    F      %     mph   deg.      mph     mb.   
-------------------------------------------------------------------
 294   14:10    0.0    32   35.2    53    265.9    63.5   999.0 
 294   14:20    0.0    32   33.7    54    264.9    65.9   999.0 
 294   14:30    0.0    32   32.0    46    264.9    56.5   999.0 
 294   14:40    0.0    32   32.5    48    266.2    58.8   999.0 
 294   14:50    0.0    32   34.5    38    266.2    54.1   999.0 
 294   15:00    0.0    33   31.0    37    267.2    44.7   999.0 
 294   15:10    0.0    33   30.4    39    266.2    49.4   999.0 
 294   15:20    0.0    33   30.0    38    265.4    47.1   999.0 
 294   15:30    0.0    32   28.8    42    265.5    51.8   999.0 
 294   15:40    0.0    32   28.3    41    264.9    51.8   999.0 
 294   15:50    0.0    32   27.8    42    265.0    54.1   999.0 
 294   16:00    0.0    31   27.8    39    264.9    44.7   999.0 
 294   16:10    0.0    31   26.1    37    265.3    42.4   999.0 
 294   16:20    0.0    30   31.2    36    266.9    44.7   999.0 
 294   16:30    0.0    30   32.9    35    265.7    44.7   999.0 
 294   16:40    0.0    30   31.2    36    266.9    42.4   999.0 
 294   16:50    0.0    29   28.0    29    265.2    37.7   999.0 
 294   17:00    0.0    29   29.6    32    265.0    37.7   999.0 
 294   17:10    0.0    28   33.5    38    264.8    47.1   999.0 
 294   17:20    0.0    28   34.1    36    265.8    42.4   999.0 
 294   17:30    0.0    27   36.4    41    266.8    47.1   999.0 
 294   17:40    0.0    26   35.7    36    264.8    44.7   999.0 
 294   17:50    0.0    26   34.7    34    265.5    37.7   999.0 
 294   18:00    0.0    25   35.5    30    266.1    35.3   999.0 
 294   18:10    0.0    25   36.1    28    266.9    33.0   999.0 
 294   18:20    0.0    25   36.4    33    265.2    42.4   999.0 
 294   18:30    0.0    25   40.2    44    264.8    51.8   999.0 
 294   18:40    0.0    24   45.1    51    267.2    56.5   999.0 
 294   18:50    0.0    24   43.3    51    266.5    56.5   999.0 
 294   19:00    0.0    24   35.6    54    268.8    58.8   999.0 
 294   19:10    0.0    24   38.5    57    268.8    61.2   999.0 
 294   19:20    0.0    23   56.2    55    266.5    58.8   999.0 
 294   19:30    0.0    23   67.8    55    267.0    61.2   999.0 
 294   19:40    0.0    23   65.1    53    269.0    56.5   999.0 
 294   19:50    0.0    23   71.6    53    270.0    56.5   999.0 
 294   20:00    0.0    23   76.3    53    268.1    58.8   999.0 
 294   20:10    0.0    23   75.6    51    266.9    56.5   999.0 
 294   20:20    0.0    22   71.3    51    268.6    56.5   999.0 
 294   20:30    0.0    22   71.5    52    267.6    56.5   999.0 
 294   20:40    0.0    23   69.5    55    267.3    61.2   999.0 
 294   20:50    0.0    23   68.5    54    268.7    58.8   999.0 
 294   21:00    0.0    23   67.2    53    267.5    58.8   999.0 
 294   21:10    0.0    23   67.3    54    267.7    58.8   999.0 
 294   21:20    0.0    23   68.1    54    267.9    61.2   999.0 
 294   21:30    0.0    23   71.4    58    266.3    63.5   999.0 
 294   21:40    0.0    23   71.8    57    265.2    58.8   999.0 
 294   21:50    0.0    22   71.8    55    266.5    61.2   999.0 
 294   22:00    0.0    22   74.3    53    266.6    56.5   999.0 
 294   22:10    0.0    22   75.6    54    266.4    58.8   999.0 
 294   22:20    0.0    22   75.7    53    265.7    56.5   999.0 
 294   22:30    0.0    22   71.2    52    266.9    56.5   999.0 
 294   22:40    0.0    22   68.5    52    265.7    56.5   999.0 
 294   22:50    0.0    22   72.7    53    265.9    56.5   999.0 
 294   23:00    0.0    22   76.7    54    266.2    56.5   999.0 
 294   23:10    0.0    22   76.2    52    268.8    63.5   999.0 
 294   23:20    0.0    22   75.7    51    266.5    58.8   999.0 
 294   23:30    0.0    22   75.8    50    267.6    56.5   999.0 
 294   23:40    0.0    22   76.1    51    267.8    58.8   999.0 
 294   23:50    0.0    23   75.0    48    267.6    54.1   999.0 
 295    0:00    0.0    23   75.2    43    273.2    51.8   999.0 
 295    0:10    0.0    23   73.7    35    278.1    42.4   999.0 
 295    0:20    0.0    23   74.7    38    273.3    44.7   999.0 
 295    0:30    0.0    23   72.8    28    275.2    33.0   999.0 
 295    0:40    0.0    23   73.0    25    279.4    30.6   999.0 
 295    0:50    0.0    24   71.5    28    271.9    40.0   999.0 
 295    1:00    0.0    24   65.8    29    274.4    37.7   999.0 
 295    1:10    0.0    24   65.4    28    270.9    33.0   999.0 
 295    1:20    0.0    25   63.0    28    278.2    35.3   999.0 
 295    1:30    0.0    24   64.1    31    274.7    44.7   999.0 
 295    1:40    0.0    24   62.0    32    280.3    54.1   999.0 
 295    1:50    0.0    24   61.9    32    278.5    49.4   999.0 
 295    2:00    0.0    24   61.6    33    281.5    51.8   999.0 
 295    2:10    0.0    24   61.2    28    276.6    51.8   999.0 
 295    2:20    0.0    24   62.1    31    276.5    49.4   999.0 
 295    2:30    0.0    25   61.3    30    272.2    49.4   999.0 
 295    2:40    0.0    24   62.1    31    276.5    56.5   999.0 
 295    2:50    0.0    24   63.1    30    283.3    47.1   999.0 
 295    3:00    0.0    24   64.7    30    277.4    42.4   999.0 
 295    3:10    0.0    24   65.4    31    280.1    49.4   999.0 
 295    3:20    0.0    24   66.1    33    278.2    49.4   999.0 
 295    3:30    0.0    23   67.8    34    271.4    49.4   999.0 
 295    3:40    0.0    23   68.7    30    281.8    49.4   999.0 
 295    3:50    0.0    23   69.3    31    283.4    47.1   999.0 
 295    4:00    0.0    23   69.9    27    280.8    40.0   999.0 
 295    4:10    0.0    23   69.5    31    272.3    47.1   999.0 
 295    4:20    0.0    24   68.3    26    286.7    44.7   999.0 
 295    4:30    0.0    24   68.0    18    293.7    47.1   999.0 
 295    4:40    0.0    23   68.2    23    291.1    54.1   999.0 
 295    4:50    0.0    24   67.0    28    283.1    49.4   999.0 
 295    5:00    0.0    24   66.2    22    288.1    40.0   999.0 
 295    5:10    0.0    24   66.5    29    277.4    56.5   999.0 
 295    5:20    0.0    24   65.6    34    271.9    56.5   999.0 
 295    5:30    0.0    24   64.4    31    271.2    51.8   999.0 
 295    5:40    0.0    24   63.7    29    277.9    49.4   999.0 
 295    5:50    0.0    24   61.5    24    279.0    37.7   999.0 
 295    6:00    0.0    24   58.6    29    273.4    47.1   999.0 
 295    6:10    0.0    24   56.9    34    270.9    47.1   999.0 
 295    6:20    0.0    25   57.0    32    273.5    42.4   999.0 
 295    6:30    0.0    25   57.0    28    271.2    37.7   999.0 
 295    6:40    0.0    25   56.2    24    272.4    33.0   999.0 
 295    6:50    0.0    25   55.1    20    272.7    25.9   999.0 
 295    7:00    0.0    25   54.0    21    272.7    33.0   999.0 
 295    7:10   10.0    26   51.9    20    272.7    28.2   999.0 
 295    7:20  251.0    26   49.8    22    273.5    28.2   999.0 
 295    7:30  284.0    26   48.8    22    275.0    28.2   999.0 
 295    7:40  500.0    26   46.6    22    275.1    28.2   999.0 
 295    7:50  600.0    27   44.4    23    272.4    25.9   999.0 
 295    8:00  687.0    27   44.4    23    277.3    25.9   999.0 
 295    8:10  747.0    28   46.2    21    275.4    25.9   999.0 
 295    8:20  517.0    28   45.7    24    275.4    28.2   999.0 
 295    8:30  389.0    28   42.5    27    276.0    33.0   999.0 
 295    8:40  280.0    29   40.8    28    273.0    35.3   999.0 
 295    8:50  321.0    30   38.5    26    275.5    35.3   999.0 
 295    9:00  288.0    30   37.0    27    271.0    33.0   999.0 
 295    9:10    9.0    30   36.0    29    271.9    35.3   999.0 
 295    9:20  375.0    31   36.1    29    267.4    33.0   999.0 
 295    9:30  338.0    31   35.5    32    268.2    40.0   999.0 
 295    9:40  160.0    31   35.1    31    269.3    42.4   999.0 
 295    9:50    0.0    32   33.9    30    267.4    35.3   999.0 
 295   10:00    0.0    33   32.9    32    266.3    40.0   999.0 
 295   10:10    0.0    33   32.8    35    268.4    42.4   999.0 
 295   10:20    0.0    33   32.9    34    267.5    40.0   999.0 
 295   10:30    0.0    33   32.2    33    266.1    37.7   999.0 
 295   10:40    0.0    33   32.4    33    266.7    37.7   999.0 
 295   10:50    0.0    33   31.3    32    264.9    37.7   999.0 
 295   11:00    0.0    34   31.2    30    266.4    35.3   999.0 
 295   11:10    0.0    35   30.5    28    267.0    33.0   999.0 
 295   11:20    0.0    35   30.3    28    265.6    35.3   999.0 
 295   11:30    0.0    35   30.8    31    267.9    40.0   999.0 
 295   11:40    0.0    36   30.5    35    267.3    40.0   999.0 
 295   11:50    0.0    36   30.5    35    266.7    42.4   999.0 
 295   12:00    0.0    36   31.0    37    267.6    44.7   999.0 
 295   12:10    0.0    37   30.7    39    264.6    47.1   999.0 
 295   12:20    0.0    37   32.0    38    264.9    44.7   999.0 
 295   12:30    0.0    37   32.1    36    265.2    42.4   999.0 
 295   12:40    0.0    38   32.3    38    263.9    44.7   999.0 
 295   12:50    0.0    38   32.5    36    264.0    42.4   999.0 
 295   13:00    0.0    38   32.6    38    263.8    44.7   999.0 
 295   13:10    0.0    38   32.7    34    264.3    40.0   999.0 
 295   13:20    0.0    39   32.1    33    264.6    40.0   999.0 
 295   13:30    0.0    39   31.9    33    265.3    40.0   999.0 
 295   13:40    0.0    39   31.7    32    265.4    40.0   999.0 
 295   13:50    0.0    40   30.6    31    264.2    42.4   999.0 
 295   14:00    0.0    41   29.9    34    264.1    42.4   999.0 

Return to White Mountain graphs page.


Western Regional Climate Center,wrcc@dri.edu